sensor_id;sensor_type;location;lat;lon;timestamp;P1;durP1;ratioP1;P2;durP2;ratioP2
74650;SDS011;63169;46.042;14.592;2023-09-12T00:00:41;8.82;;;6.40;;
74650;SDS011;63169;46.042;14.592;2023-09-12T00:03:07;8.98;;;7.05;;
74650;SDS011;63169;46.042;14.592;2023-09-12T00:05:33;9.43;;;6.57;;
74650;SDS011;63169;46.042;14.592;2023-09-12T00:07:58;12.27;;;7.68;;
74650;SDS011;63169;46.042;14.592;2023-09-12T00:10:24;9.73;;;8.10;;
74650;SDS011;63169;46.042;14.592;2023-09-12T00:12:50;9.18;;;6.68;;
74650;SDS011;63169;46.042;14.592;2023-09-12T00:15:15;10.48;;;7.25;;
74650;SDS011;63169;46.042;14.592;2023-09-12T00:17:40;14.57;;;8.75;;
74650;SDS011;63169;46.042;14.592;2023-09-12T00:20:06;11.88;;;8.13;;
74650;SDS011;63169;46.042;14.592;2023-09-12T00:22:32;10.68;;;7.45;;
74650;SDS011;63169;46.042;14.592;2023-09-12T00:24:58;11.73;;;8.73;;
74650;SDS011;63169;46.042;14.592;2023-09-12T00:27:23;15.43;;;9.30;;
74650;SDS011;63169;46.042;14.592;2023-09-12T00:29:49;10.60;;;8.93;;
74650;SDS011;63169;46.042;14.592;2023-09-12T00:32:14;12.60;;;9.00;;
74650;SDS011;63169;46.042;14.592;2023-09-12T00:34:39;11.52;;;8.35;;
74650;SDS011;63169;46.042;14.592;2023-09-12T00:37:05;12.45;;;9.18;;
74650;SDS011;63169;46.042;14.592;2023-09-12T00:39:30;12.48;;;8.57;;
74650;SDS011;63169;46.042;14.592;2023-09-12T00:41:55;11.60;;;9.43;;
74650;SDS011;63169;46.042;14.592;2023-09-12T00:44:21;13.45;;;9.55;;
74650;SDS011;63169;46.042;14.592;2023-09-12T00:46:46;13.05;;;8.93;;
74650;SDS011;63169;46.042;14.592;2023-09-12T00:49:13;13.18;;;9.77;;
74650;SDS011;63169;46.042;14.592;2023-09-12T00:51:38;11.55;;;8.88;;
74650;SDS011;63169;46.042;14.592;2023-09-12T00:54:04;13.00;;;8.82;;
74650;SDS011;63169;46.042;14.592;2023-09-12T00:56:29;13.85;;;9.88;;
74650;SDS011;63169;46.042;14.592;2023-09-12T00:58:55;12.60;;;8.50;;
74650;SDS011;63169;46.042;14.592;2023-09-12T01:01:21;12.20;;;9.23;;
74650;SDS011;63169;46.042;14.592;2023-09-12T01:03:46;11.23;;;7.93;;
74650;SDS011;63169;46.042;14.592;2023-09-12T01:06:12;11.75;;;8.68;;
74650;SDS011;63169;46.042;14.592;2023-09-12T01:08:39;12.60;;;9.35;;
74650;SDS011;63169;46.042;14.592;2023-09-12T01:11:04;10.43;;;8.65;;
74650;SDS011;63169;46.042;14.592;2023-09-12T01:13:30;11.40;;;7.95;;
74650;SDS011;63169;46.042;14.592;2023-09-12T01:15:55;13.88;;;8.50;;
74650;SDS011;63169;46.042;14.592;2023-09-12T01:18:20;13.68;;;8.82;;
74650;SDS011;63169;46.042;14.592;2023-09-12T01:21:07;11.98;;;8.57;;
74650;SDS011;63169;46.042;14.592;2023-09-12T01:24:04;11.32;;;7.50;;
74650;SDS011;63169;46.042;14.592;2023-09-12T01:29:37;11.32;;;9.30;;
74650;SDS011;63169;46.042;14.592;2023-09-12T01:32:04;11.30;;;8.73;;
74650;SDS011;63169;46.042;14.592;2023-09-12T01:34:29;11.90;;;8.40;;
74650;SDS011;63169;46.042;14.592;2023-09-12T01:36:55;12.48;;;9.75;;
74650;SDS011;63169;46.042;14.592;2023-09-12T01:39:20;9.77;;;7.25;;
74650;SDS011;63169;46.042;14.592;2023-09-12T01:41:45;11.13;;;7.72;;
74650;SDS011;63169;46.042;14.592;2023-09-12T01:44:12;10.18;;;8.13;;
74650;SDS011;63169;46.042;14.592;2023-09-12T01:46:39;11.85;;;7.25;;
74650;SDS011;63169;46.042;14.592;2023-09-12T01:49:05;11.02;;;8.15;;
74650;SDS011;63169;46.042;14.592;2023-09-12T01:51:31;12.73;;;7.80;;
74650;SDS011;63169;46.042;14.592;2023-09-12T01:53:56;12.27;;;7.70;;
74650;SDS011;63169;46.042;14.592;2023-09-12T01:56:22;10.75;;;7.88;;
74650;SDS011;63169;46.042;14.592;2023-09-12T01:58:48;13.13;;;8.27;;
74650;SDS011;63169;46.042;14.592;2023-09-12T02:01:14;12.20;;;8.30;;
74650;SDS011;63169;46.042;14.592;2023-09-12T02:03:39;9.50;;;7.13;;
74650;SDS011;63169;46.042;14.592;2023-09-12T02:06:04;11.07;;;9.55;;
74650;SDS011;63169;46.042;14.592;2023-09-12T02:08:30;11.15;;;7.32;;
74650;SDS011;63169;46.042;14.592;2023-09-12T02:10:55;13.00;;;8.68;;
74650;SDS011;63169;46.042;14.592;2023-09-12T02:13:21;11.20;;;8.35;;
74650;SDS011;63169;46.042;14.592;2023-09-12T02:15:46;15.07;;;9.35;;
74650;SDS011;63169;46.042;14.592;2023-09-12T02:18:11;12.85;;;9.88;;
74650;SDS011;63169;46.042;14.592;2023-09-12T02:20:37;12.05;;;7.68;;
74650;SDS011;63169;46.042;14.592;2023-09-12T02:23:03;11.18;;;8.68;;
74650;SDS011;63169;46.042;14.592;2023-09-12T02:25:29;11.88;;;8.77;;
74650;SDS011;63169;46.042;14.592;2023-09-12T02:27:54;13.18;;;9.55;;
74650;SDS011;63169;46.042;14.592;2023-09-12T02:30:19;12.13;;;8.27;;
74650;SDS011;63169;46.042;14.592;2023-09-12T02:32:45;12.30;;;8.10;;
74650;SDS011;63169;46.042;14.592;2023-09-12T02:35:10;11.90;;;7.88;;
74650;SDS011;63169;46.042;14.592;2023-09-12T02:37:36;10.05;;;7.57;;
74650;SDS011;63169;46.042;14.592;2023-09-12T02:40:01;10.88;;;7.63;;
74650;SDS011;63169;46.042;14.592;2023-09-12T02:42:29;16.70;;;9.25;;
74650;SDS011;63169;46.042;14.592;2023-09-12T02:44:54;11.98;;;9.65;;
74650;SDS011;63169;46.042;14.592;2023-09-12T02:47:20;12.93;;;9.50;;
74650;SDS011;63169;46.042;14.592;2023-09-12T02:49:45;12.60;;;8.98;;
74650;SDS011;63169;46.042;14.592;2023-09-12T02:52:10;16.80;;;10.95;;
74650;SDS011;63169;46.042;14.592;2023-09-12T02:54:36;18.52;;;11.85;;
74650;SDS011;63169;46.042;14.592;2023-09-12T02:57:01;17.92;;;11.48;;
74650;SDS011;63169;46.042;14.592;2023-09-12T02:59:27;17.08;;;12.43;;
74650;SDS011;63169;46.042;14.592;2023-09-12T03:01:52;20.50;;;11.88;;
74650;SDS011;63169;46.042;14.592;2023-09-12T03:04:17;20.88;;;13.43;;
74650;SDS011;63169;46.042;14.592;2023-09-12T03:06:43;18.15;;;12.05;;
74650;SDS011;63169;46.042;14.592;2023-09-12T03:09:08;17.30;;;11.75;;
74650;SDS011;63169;46.042;14.592;2023-09-12T03:11:34;20.00;;;12.20;;
74650;SDS011;63169;46.042;14.592;2023-09-12T03:14:00;19.05;;;11.23;;
74650;SDS011;63169;46.042;14.592;2023-09-12T03:16:25;19.15;;;11.80;;
74650;SDS011;63169;46.042;14.592;2023-09-12T03:18:50;20.40;;;12.55;;
74650;SDS011;63169;46.042;14.592;2023-09-12T03:21:16;19.48;;;12.80;;
74650;SDS011;63169;46.042;14.592;2023-09-12T03:23:41;18.73;;;12.98;;
74650;SDS011;63169;46.042;14.592;2023-09-12T03:26:06;18.08;;;11.80;;
74650;SDS011;63169;46.042;14.592;2023-09-12T03:28:32;17.35;;;11.85;;
74650;SDS011;63169;46.042;14.592;2023-09-12T03:31:06;17.10;;;11.50;;
74650;SDS011;63169;46.042;14.592;2023-09-12T03:33:32;17.65;;;11.93;;
74650;SDS011;63169;46.042;14.592;2023-09-12T03:35:58;16.83;;;10.63;;
74650;SDS011;63169;46.042;14.592;2023-09-12T03:38:23;16.95;;;11.25;;
74650;SDS011;63169;46.042;14.592;2023-09-12T03:40:48;16.73;;;11.05;;
74650;SDS011;63169;46.042;14.592;2023-09-12T03:43:14;14.20;;;10.55;;
74650;SDS011;63169;46.042;14.592;2023-09-12T03:45:39;14.15;;;10.73;;
74650;SDS011;63169;46.042;14.592;2023-09-12T03:48:05;14.13;;;10.45;;
74650;SDS011;63169;46.042;14.592;2023-09-12T03:50:30;18.23;;;9.98;;
74650;SDS011;63169;46.042;14.592;2023-09-12T03:52:56;14.55;;;10.23;;
74650;SDS011;63169;46.042;14.592;2023-09-12T03:55:21;15.10;;;10.15;;
74650;SDS011;63169;46.042;14.592;2023-09-12T03:57:46;16.25;;;9.38;;
74650;SDS011;63169;46.042;14.592;2023-09-12T04:00:12;13.75;;;9.98;;
74650;SDS011;63169;46.042;14.592;2023-09-12T04:02:38;13.82;;;8.50;;
74650;SDS011;63169;46.042;14.592;2023-09-12T04:05:04;15.35;;;10.48;;
74650;SDS011;63169;46.042;14.592;2023-09-12T04:07:29;14.77;;;10.57;;
74650;SDS011;63169;46.042;14.592;2023-09-12T04:09:55;13.82;;;9.70;;
74650;SDS011;63169;46.042;14.592;2023-09-12T04:12:20;14.07;;;9.43;;
74650;SDS011;63169;46.042;14.592;2023-09-12T04:14:45;13.23;;;10.52;;
74650;SDS011;63169;46.042;14.592;2023-09-12T04:17:11;14.70;;;10.60;;
74650;SDS011;63169;46.042;14.592;2023-09-12T04:19:36;14.43;;;9.90;;
74650;SDS011;63169;46.042;14.592;2023-09-12T04:22:01;15.35;;;10.63;;
74650;SDS011;63169;46.042;14.592;2023-09-12T04:24:29;15.88;;;10.02;;
74650;SDS011;63169;46.042;14.592;2023-09-12T04:26:54;15.13;;;9.25;;
74650;SDS011;63169;46.042;14.592;2023-09-12T04:29:20;14.73;;;10.52;;
74650;SDS011;63169;46.042;14.592;2023-09-12T04:31:45;36.13;;;28.67;;
74650;SDS011;63169;46.042;14.592;2023-09-12T04:34:10;15.32;;;10.55;;
74650;SDS011;63169;46.042;14.592;2023-09-12T04:36:36;15.30;;;10.40;;
74650;SDS011;63169;46.042;14.592;2023-09-12T04:39:01;17.50;;;11.30;;
74650;SDS011;63169;46.042;14.592;2023-09-12T04:41:27;14.70;;;10.57;;
74650;SDS011;63169;46.042;14.592;2023-09-12T04:43:52;14.40;;;10.00;;
74650;SDS011;63169;46.042;14.592;2023-09-12T04:46:17;14.85;;;10.27;;
74650;SDS011;63169;46.042;14.592;2023-09-12T04:48:43;14.77;;;10.57;;
74650;SDS011;63169;46.042;14.592;2023-09-12T04:51:08;17.35;;;11.82;;
74650;SDS011;63169;46.042;14.592;2023-09-12T04:53:34;13.95;;;9.98;;
74650;SDS011;63169;46.042;14.592;2023-09-12T04:56:03;13.00;;;9.13;;
74650;SDS011;63169;46.042;14.592;2023-09-12T04:58:29;13.05;;;9.50;;
74650;SDS011;63169;46.042;14.592;2023-09-12T05:00:55;13.98;;;10.20;;
74650;SDS011;63169;46.042;14.592;2023-09-12T05:03:20;12.52;;;9.30;;
74650;SDS011;63169;46.042;14.592;2023-09-12T05:05:47;15.40;;;9.50;;
74650;SDS011;63169;46.042;14.592;2023-09-12T05:08:12;11.07;;;9.00;;
74650;SDS011;63169;46.042;14.592;2023-09-12T05:10:38;16.88;;;10.02;;
74650;SDS011;63169;46.042;14.592;2023-09-12T05:13:04;14.30;;;9.68;;
74650;SDS011;63169;46.042;14.592;2023-09-12T05:15:29;15.20;;;9.30;;
74650;SDS011;63169;46.042;14.592;2023-09-12T05:17:55;14.75;;;9.80;;
74650;SDS011;63169;46.042;14.592;2023-09-12T05:20:20;13.48;;;9.40;;
74650;SDS011;63169;46.042;14.592;2023-09-12T05:22:45;12.98;;;9.10;;
74650;SDS011;63169;46.042;14.592;2023-09-12T05:25:11;13.38;;;9.23;;
74650;SDS011;63169;46.042;14.592;2023-09-12T05:27:36;13.15;;;9.68;;
74650;SDS011;63169;46.042;14.592;2023-09-12T05:30:01;13.23;;;9.55;;
74650;SDS011;63169;46.042;14.592;2023-09-12T05:32:27;11.93;;;8.57;;
74650;SDS011;63169;46.042;14.592;2023-09-12T05:34:52;14.20;;;11.20;;
74650;SDS011;63169;46.042;14.592;2023-09-12T05:37:18;14.52;;;10.25;;
74650;SDS011;63169;46.042;14.592;2023-09-12T05:39:45;12.63;;;9.55;;
74650;SDS011;63169;46.042;14.592;2023-09-12T05:42:11;12.50;;;8.77;;
74650;SDS011;63169;46.042;14.592;2023-09-12T05:44:37;11.50;;;8.63;;
74650;SDS011;63169;46.042;14.592;2023-09-12T05:47:02;11.15;;;9.10;;
74650;SDS011;63169;46.042;14.592;2023-09-12T05:49:28;15.73;;;9.70;;
74650;SDS011;63169;46.042;14.592;2023-09-12T05:51:53;15.18;;;8.93;;
74650;SDS011;63169;46.042;14.592;2023-09-12T05:54:19;20.00;;;13.07;;
74650;SDS011;63169;46.042;14.592;2023-09-12T05:56:44;14.90;;;10.85;;
74650;SDS011;63169;46.042;14.592;2023-09-12T05:59:10;14.00;;;10.63;;
74650;SDS011;63169;46.042;14.592;2023-09-12T06:01:35;15.07;;;9.75;;
74650;SDS011;63169;46.042;14.592;2023-09-12T06:04:00;12.48;;;8.90;;
74650;SDS011;63169;46.042;14.592;2023-09-12T06:06:27;13.73;;;10.07;;
74650;SDS011;63169;46.042;14.592;2023-09-12T06:08:52;12.40;;;8.43;;
74650;SDS011;63169;46.042;14.592;2023-09-12T06:11:18;12.45;;;9.35;;
74650;SDS011;63169;46.042;14.592;2023-09-12T06:13:44;13.00;;;9.48;;
74650;SDS011;63169;46.042;14.592;2023-09-12T06:16:09;13.35;;;8.27;;
74650;SDS011;63169;46.042;14.592;2023-09-12T06:18:34;13.48;;;9.23;;
74650;SDS011;63169;46.042;14.592;2023-09-12T06:21:00;12.30;;;9.35;;
74650;SDS011;63169;46.042;14.592;2023-09-12T06:23:29;13.43;;;9.48;;
74650;SDS011;63169;46.042;14.592;2023-09-12T06:25:55;23.10;;;16.70;;
74650;SDS011;63169;46.042;14.592;2023-09-12T06:28:27;17.48;;;13.27;;
74650;SDS011;63169;46.042;14.592;2023-09-12T06:30:53;14.50;;;10.00;;
74650;SDS011;63169;46.042;14.592;2023-09-12T06:33:18;14.00;;;9.90;;
74650;SDS011;63169;46.042;14.592;2023-09-12T06:35:43;13.05;;;9.85;;
74650;SDS011;63169;46.042;14.592;2023-09-12T06:38:12;13.15;;;9.90;;
74650;SDS011;63169;46.042;14.592;2023-09-12T06:40:37;14.80;;;10.38;;
74650;SDS011;63169;46.042;14.592;2023-09-12T06:43:03;15.43;;;10.13;;
74650;SDS011;63169;46.042;14.592;2023-09-12T06:45:28;15.38;;;9.05;;
74650;SDS011;63169;46.042;14.592;2023-09-12T06:47:55;13.10;;;8.82;;
74650;SDS011;63169;46.042;14.592;2023-09-12T06:50:21;16.38;;;10.52;;
74650;SDS011;63169;46.042;14.592;2023-09-12T06:52:46;14.57;;;9.15;;
74650;SDS011;63169;46.042;14.592;2023-09-12T06:55:11;14.00;;;10.82;;
74650;SDS011;63169;46.042;14.592;2023-09-12T06:57:37;15.25;;;9.48;;
74650;SDS011;63169;46.042;14.592;2023-09-12T07:00:02;12.63;;;7.90;;
74650;SDS011;63169;46.042;14.592;2023-09-12T07:02:31;14.75;;;8.60;;
74650;SDS011;63169;46.042;14.592;2023-09-12T07:04:57;11.75;;;8.65;;
74650;SDS011;63169;46.042;14.592;2023-09-12T07:07:23;14.32;;;8.60;;
74650;SDS011;63169;46.042;14.592;2023-09-12T07:09:49;12.70;;;8.00;;
74650;SDS011;63169;46.042;14.592;2023-09-12T07:12:14;14.77;;;9.70;;
74650;SDS011;63169;46.042;14.592;2023-09-12T07:14:39;11.13;;;7.38;;
74650;SDS011;63169;46.042;14.592;2023-09-12T07:17:07;19.08;;;8.93;;
74650;SDS011;63169;46.042;14.592;2023-09-12T07:19:33;14.18;;;8.60;;
74650;SDS011;63169;46.042;14.592;2023-09-12T07:21:58;17.58;;;8.75;;
74650;SDS011;63169;46.042;14.592;2023-09-12T07:24:27;14.38;;;8.98;;
74650;SDS011;63169;46.042;14.592;2023-09-12T07:26:52;11.80;;;8.43;;
74650;SDS011;63169;46.042;14.592;2023-09-12T07:29:18;11.60;;;9.00;;
74650;SDS011;63169;46.042;14.592;2023-09-12T07:31:43;11.00;;;8.57;;
74650;SDS011;63169;46.042;14.592;2023-09-12T07:34:09;10.65;;;8.10;;
74650;SDS011;63169;46.042;14.592;2023-09-12T07:36:35;11.40;;;8.85;;
74650;SDS011;63169;46.042;14.592;2023-09-12T07:39:01;9.98;;;7.72;;
74650;SDS011;63169;46.042;14.592;2023-09-12T07:43:52;9.67;;;7.37;;
74650;SDS011;63169;46.042;14.592;2023-09-12T07:46:17;11.82;;;9.10;;
74650;SDS011;63169;46.042;14.592;2023-09-12T07:51:11;11.00;;;7.80;;
74650;SDS011;63169;46.042;14.592;2023-09-12T07:53:39;12.00;;;8.88;;
74650;SDS011;63169;46.042;14.592;2023-09-12T07:58:29;12.37;;;8.07;;
74650;SDS011;63169;46.042;14.592;2023-09-12T08:00:55;9.75;;;7.40;;
74650;SDS011;63169;46.042;14.592;2023-09-12T08:03:20;11.15;;;9.25;;
74650;SDS011;63169;46.042;14.592;2023-09-12T08:08:19;12.20;;;8.77;;
74650;SDS011;63169;46.042;14.592;2023-09-12T08:13:11;12.00;;;8.20;;
74650;SDS011;63169;46.042;14.592;2023-09-12T08:18:02;15.30;;;9.82;;
74650;SDS011;63169;46.042;14.592;2023-09-12T08:22:52;14.03;;;9.40;;
74650;SDS011;63169;46.042;14.592;2023-09-12T08:27:43;12.82;;;9.30;;
74650;SDS011;63169;46.042;14.592;2023-09-12T08:32:35;13.43;;;9.80;;
74650;SDS011;63169;46.042;14.592;2023-09-12T08:37:25;13.60;;;9.37;;
74650;SDS011;63169;46.042;14.592;2023-09-12T08:39:52;14.23;;;8.88;;
74650;SDS011;63169;46.042;14.592;2023-09-12T08:42:21;13.68;;;9.43;;
74650;SDS011;63169;46.042;14.592;2023-09-12T08:44:47;13.70;;;9.15;;
74650;SDS011;63169;46.042;14.592;2023-09-12T08:47:12;11.82;;;9.38;;
74650;SDS011;63169;46.042;14.592;2023-09-12T08:49:39;11.10;;;9.02;;
74650;SDS011;63169;46.042;14.592;2023-09-12T08:52:04;10.55;;;8.15;;
74650;SDS011;63169;46.042;14.592;2023-09-12T08:54:31;12.35;;;9.18;;
74650;SDS011;63169;46.042;14.592;2023-09-12T08:57:02;16.17;;;8.05;;
74650;SDS011;63169;46.042;14.592;2023-09-12T08:59:29;11.88;;;8.60;;
74650;SDS011;63169;46.042;14.592;2023-09-12T09:01:57;13.00;;;9.63;;
74650;SDS011;63169;46.042;14.592;2023-09-12T09:04:23;13.05;;;9.65;;
74650;SDS011;63169;46.042;14.592;2023-09-12T09:06:51;10.57;;;8.10;;
74650;SDS011;63169;46.042;14.592;2023-09-12T09:09:17;11.80;;;8.07;;
74650;SDS011;63169;46.042;14.592;2023-09-12T09:14:08;14.32;;;6.95;;
74650;SDS011;63169;46.042;14.592;2023-09-12T09:16:34;9.60;;;7.82;;
74650;SDS011;63169;46.042;14.592;2023-09-12T09:19:01;9.45;;;7.88;;
74650;SDS011;63169;46.042;14.592;2023-09-12T09:21:29;9.18;;;7.80;;
74650;SDS011;63169;46.042;14.592;2023-09-12T09:23:57;11.77;;;8.15;;
74650;SDS011;63169;46.042;14.592;2023-09-12T09:26:24;8.70;;;7.05;;
74650;SDS011;63169;46.042;14.592;2023-09-12T09:29:02;9.75;;;7.28;;
74650;SDS011;63169;46.042;14.592;2023-09-12T09:31:28;8.95;;;7.10;;
74650;SDS011;63169;46.042;14.592;2023-09-12T09:33:54;10.20;;;6.70;;
74650;SDS011;63169;46.042;14.592;2023-09-12T09:36:20;8.95;;;6.63;;
74650;SDS011;63169;46.042;14.592;2023-09-12T09:38:45;10.88;;;7.00;;
74650;SDS011;63169;46.042;14.592;2023-09-12T09:41:11;8.23;;;7.15;;
74650;SDS011;63169;46.042;14.592;2023-09-12T09:43:36;11.90;;;7.03;;
74650;SDS011;63169;46.042;14.592;2023-09-12T09:46:02;9.52;;;6.93;;
74650;SDS011;63169;46.042;14.592;2023-09-12T09:48:28;9.02;;;7.28;;
74650;SDS011;63169;46.042;14.592;2023-09-12T09:50:56;10.25;;;7.03;;
74650;SDS011;63169;46.042;14.592;2023-09-12T09:55:51;8.15;;;6.13;;
74650;SDS011;63169;46.042;14.592;2023-09-12T09:58:16;8.00;;;6.50;;
74650;SDS011;63169;46.042;14.592;2023-09-12T10:00:42;8.32;;;6.40;;
74650;SDS011;63169;46.042;14.592;2023-09-12T10:03:08;8.35;;;6.13;;
74650;SDS011;63169;46.042;14.592;2023-09-12T10:05:36;9.23;;;6.72;;
74650;SDS011;63169;46.042;14.592;2023-09-12T10:08:02;9.40;;;6.20;;
74650;SDS011;63169;46.042;14.592;2023-09-12T10:10:30;10.88;;;6.65;;
74650;SDS011;63169;46.042;14.592;2023-09-12T10:12:58;10.45;;;7.60;;
74650;SDS011;63169;46.042;14.592;2023-09-12T10:15:25;9.13;;;6.53;;
74650;SDS011;63169;46.042;14.592;2023-09-12T10:17:55;8.55;;;6.47;;
74650;SDS011;63169;46.042;14.592;2023-09-12T10:20:24;9.40;;;7.10;;
74650;SDS011;63169;46.042;14.592;2023-09-12T10:23:04;8.93;;;7.20;;
74650;SDS011;63169;46.042;14.592;2023-09-12T10:25:36;9.02;;;7.45;;
74650;SDS011;63169;46.042;14.592;2023-09-12T10:28:03;10.65;;;7.00;;
74650;SDS011;63169;46.042;14.592;2023-09-12T10:30:29;8.55;;;6.90;;
74650;SDS011;63169;46.042;14.592;2023-09-12T10:32:55;9.52;;;6.55;;
74650;SDS011;63169;46.042;14.592;2023-09-12T10:35:21;8.25;;;7.35;;
74650;SDS011;63169;46.042;14.592;2023-09-12T10:37:46;9.77;;;6.80;;
74650;SDS011;63169;46.042;14.592;2023-09-12T10:40:14;9.07;;;6.65;;
74650;SDS011;63169;46.042;14.592;2023-09-12T10:42:40;8.32;;;7.05;;
74650;SDS011;63169;46.042;14.592;2023-09-12T10:45:06;9.15;;;6.57;;
74650;SDS011;63169;46.042;14.592;2023-09-12T10:47:34;8.13;;;6.70;;
74650;SDS011;63169;46.042;14.592;2023-09-12T10:50:01;7.40;;;6.22;;
74650;SDS011;63169;46.042;14.592;2023-09-12T10:52:27;8.30;;;6.32;;
74650;SDS011;63169;46.042;14.592;2023-09-12T10:54:52;9.55;;;6.85;;
74650;SDS011;63169;46.042;14.592;2023-09-12T10:57:18;8.57;;;6.88;;
74650;SDS011;63169;46.042;14.592;2023-09-12T11:05:00;9.57;;;6.25;;
74650;SDS011;63169;46.042;14.592;2023-09-12T11:07:32;8.50;;;6.05;;
74650;SDS011;63169;46.042;14.592;2023-09-12T11:12:39;8.38;;;6.35;;
74650;SDS011;63169;46.042;14.592;2023-09-12T11:15:07;7.53;;;6.40;;
74650;SDS011;63169;46.042;14.592;2023-09-12T11:17:40;8.73;;;5.25;;
74650;SDS011;63169;46.042;14.592;2023-09-12T11:20:09;6.47;;;5.40;;
74650;SDS011;63169;46.042;14.592;2023-09-12T11:22:38;5.90;;;4.95;;
74650;SDS011;63169;46.042;14.592;2023-09-12T11:25:15;6.10;;;5.50;;
74650;SDS011;63169;46.042;14.592;2023-09-12T11:30:16;7.55;;;5.65;;
74650;SDS011;63169;46.042;14.592;2023-09-12T11:32:43;7.90;;;5.93;;
74650;SDS011;63169;46.042;14.592;2023-09-12T11:35:10;8.55;;;5.65;;
74650;SDS011;63169;46.042;14.592;2023-09-12T11:37:36;7.07;;;5.30;;
74650;SDS011;63169;46.042;14.592;2023-09-12T11:40:46;6.57;;;5.28;;
74650;SDS011;63169;46.042;14.592;2023-09-12T11:42:58;9.85;;;5.20;;
74650;SDS011;63169;46.042;14.592;2023-09-12T11:45:24;7.97;;;6.50;;
74650;SDS011;63169;46.042;14.592;2023-09-12T11:47:49;7.22;;;6.13;;
74650;SDS011;63169;46.042;14.592;2023-09-12T11:50:31;6.55;;;5.78;;
74650;SDS011;63169;46.042;14.592;2023-09-12T11:53:05;7.50;;;5.93;;
74650;SDS011;63169;46.042;14.592;2023-09-12T11:55:41;9.95;;;5.57;;
74650;SDS011;63169;46.042;14.592;2023-09-12T11:58:08;7.65;;;4.85;;
74650;SDS011;63169;46.042;14.592;2023-09-12T12:00:36;7.68;;;5.32;;
74650;SDS011;63169;46.042;14.592;2023-09-12T12:03:02;8.07;;;6.13;;
74650;SDS011;63169;46.042;14.592;2023-09-12T12:05:28;6.53;;;5.63;;
74650;SDS011;63169;46.042;14.592;2023-09-12T12:07:54;6.07;;;5.45;;
74650;SDS011;63169;46.042;14.592;2023-09-12T12:10:19;9.55;;;5.45;;
74650;SDS011;63169;46.042;14.592;2023-09-12T12:12:45;6.03;;;5.32;;
74650;SDS011;63169;46.042;14.592;2023-09-12T12:15:13;6.88;;;5.40;;
74650;SDS011;63169;46.042;14.592;2023-09-12T12:17:42;6.53;;;4.85;;
74650;SDS011;63169;46.042;14.592;2023-09-12T12:20:08;6.63;;;5.47;;
74650;SDS011;63169;46.042;14.592;2023-09-12T12:22:36;7.38;;;5.38;;
74650;SDS011;63169;46.042;14.592;2023-09-12T12:25:06;6.80;;;5.60;;
74650;SDS011;63169;46.042;14.592;2023-09-12T12:27:35;6.60;;;5.75;;
74650;SDS011;63169;46.042;14.592;2023-09-12T12:30:01;6.57;;;4.78;;
74650;SDS011;63169;46.042;14.592;2023-09-12T12:32:27;7.25;;;4.65;;
74650;SDS011;63169;46.042;14.592;2023-09-12T12:34:52;6.53;;;5.35;;
74650;SDS011;63169;46.042;14.592;2023-09-12T12:37:17;5.88;;;5.18;;
74650;SDS011;63169;46.042;14.592;2023-09-12T12:39:43;6.30;;;4.80;;
74650;SDS011;63169;46.042;14.592;2023-09-12T12:42:08;6.78;;;5.38;;
74650;SDS011;63169;46.042;14.592;2023-09-12T12:44:34;6.07;;;5.05;;
74650;SDS011;63169;46.042;14.592;2023-09-12T12:49:35;6.53;;;4.45;;
74650;SDS011;63169;46.042;14.592;2023-09-12T12:52:04;7.82;;;5.30;;
74650;SDS011;63169;46.042;14.592;2023-09-12T12:54:33;6.95;;;5.70;;
74650;SDS011;63169;46.042;14.592;2023-09-12T12:56:59;7.28;;;4.90;;
74650;SDS011;63169;46.042;14.592;2023-09-12T12:59:25;6.30;;;4.43;;
74650;SDS011;63169;46.042;14.592;2023-09-12T13:01:50;5.90;;;4.80;;
74650;SDS011;63169;46.042;14.592;2023-09-12T13:04:15;14.27;;;5.32;;
74650;SDS011;63169;46.042;14.592;2023-09-12T13:06:42;11.20;;;6.47;;
74650;SDS011;63169;46.042;14.592;2023-09-12T13:09:07;6.85;;;5.63;;
74650;SDS011;63169;46.042;14.592;2023-09-12T13:11:34;6.38;;;3.97;;
74650;SDS011;63169;46.042;14.592;2023-09-12T13:14:00;6.90;;;4.97;;
74650;SDS011;63169;46.042;14.592;2023-09-12T13:16:25;6.55;;;5.43;;
74650;SDS011;63169;46.042;14.592;2023-09-12T13:18:51;6.88;;;5.05;;
74650;SDS011;63169;46.042;14.592;2023-09-12T13:21:16;6.47;;;5.03;;
74650;SDS011;63169;46.042;14.592;2023-09-12T13:23:42;5.90;;;5.30;;
74650;SDS011;63169;46.042;14.592;2023-09-12T13:26:07;7.30;;;4.85;;
74650;SDS011;63169;46.042;14.592;2023-09-12T13:28:33;6.72;;;5.78;;
74650;SDS011;63169;46.042;14.592;2023-09-12T13:30:59;6.40;;;4.43;;
74650;SDS011;63169;46.042;14.592;2023-09-12T13:33:24;7.30;;;4.40;;
74650;SDS011;63169;46.042;14.592;2023-09-12T13:35:50;6.45;;;5.13;;
74650;SDS011;63169;46.042;14.592;2023-09-12T13:38:15;6.22;;;4.60;;
74650;SDS011;63169;46.042;14.592;2023-09-12T13:40:44;7.78;;;5.28;;
74650;SDS011;63169;46.042;14.592;2023-09-12T13:43:10;9.07;;;5.03;;
74650;SDS011;63169;46.042;14.592;2023-09-12T13:45:35;6.72;;;4.97;;
74650;SDS011;63169;46.042;14.592;2023-09-12T13:48:01;11.02;;;6.10;;
74650;SDS011;63169;46.042;14.592;2023-09-12T13:50:28;6.85;;;5.30;;
74650;SDS011;63169;46.042;14.592;2023-09-12T13:52:54;5.97;;;4.85;;
74650;SDS011;63169;46.042;14.592;2023-09-12T13:55:24;6.97;;;5.57;;
74650;SDS011;63169;46.042;14.592;2023-09-12T13:57:49;6.70;;;4.78;;
74650;SDS011;63169;46.042;14.592;2023-09-12T14:00:15;6.57;;;5.28;;
74650;SDS011;63169;46.042;14.592;2023-09-12T14:02:40;6.47;;;4.55;;
74650;SDS011;63169;46.042;14.592;2023-09-12T14:05:06;6.45;;;4.43;;
74650;SDS011;63169;46.042;14.592;2023-09-12T14:07:31;6.75;;;5.68;;
74650;SDS011;63169;46.042;14.592;2023-09-12T14:09:56;6.32;;;5.13;;
74650;SDS011;63169;46.042;14.592;2023-09-12T14:12:22;5.90;;;4.40;;
74650;SDS011;63169;46.042;14.592;2023-09-12T14:14:48;7.38;;;5.47;;
74650;SDS011;63169;46.042;14.592;2023-09-12T14:17:14;14.50;;;5.20;;
74650;SDS011;63169;46.042;14.592;2023-09-12T14:19:39;6.25;;;5.07;;
74650;SDS011;63169;46.042;14.592;2023-09-12T14:22:04;7.18;;;6.20;;
74650;SDS011;63169;46.042;14.592;2023-09-12T14:24:30;5.57;;;4.97;;
74650;SDS011;63169;46.042;14.592;2023-09-12T14:26:55;7.03;;;4.85;;
74650;SDS011;63169;46.042;14.592;2023-09-12T14:29:20;5.80;;;4.50;;
74650;SDS011;63169;46.042;14.592;2023-09-12T14:31:46;8.15;;;6.53;;
74650;SDS011;63169;46.042;14.592;2023-09-12T14:34:17;10.52;;;7.40;;
74650;SDS011;63169;46.042;14.592;2023-09-12T14:36:43;9.00;;;6.90;;
74650;SDS011;63169;46.042;14.592;2023-09-12T14:39:10;6.70;;;5.60;;
74650;SDS011;63169;46.042;14.592;2023-09-12T14:41:36;6.45;;;5.65;;
74650;SDS011;63169;46.042;14.592;2023-09-12T14:44:01;6.65;;;5.20;;
74650;SDS011;63169;46.042;14.592;2023-09-12T14:46:27;6.55;;;5.55;;
74650;SDS011;63169;46.042;14.592;2023-09-12T14:48:52;6.78;;;4.93;;
74650;SDS011;63169;46.042;14.592;2023-09-12T14:51:17;8.82;;;4.80;;
74650;SDS011;63169;46.042;14.592;2023-09-12T14:53:43;8.30;;;4.90;;
74650;SDS011;63169;46.042;14.592;2023-09-12T14:56:12;6.53;;;4.60;;
74650;SDS011;63169;46.042;14.592;2023-09-12T14:58:37;7.53;;;5.82;;
74650;SDS011;63169;46.042;14.592;2023-09-12T15:01:03;6.25;;;4.72;;
74650;SDS011;63169;46.042;14.592;2023-09-12T15:03:29;5.55;;;4.95;;